Time;durP1;ratioP1;P1;durP2;ratioP2;P2;SDS_P1;SDS_P2;PMS_P1;PMS_P2;Temp;Humidity;BMP_temperature;BMP_pressure;BME280_temperature;BME280_humidity;BME280_pressure;Samples;Min_cycle;Max_cycle;Signal;HPM_P1;HPM_P2
2022/12/15 00:38:59;;;;;;;3.70;3.40;;;;;;;-6.26;97.15;100633.91;4873863;29;20113;-64
2022/12/15 00:41:24;;;;;;;3.92;3.60;;;;;;;-6.29;96.74;100632.31;4901363;29;20028;-64
2022/12/15 00:43:50;;;;;;;3.65;3.35;;;;;;;-6.32;96.65;100627.25;4893475;29;20033;-64
2022/12/15 00:48:59;;;;;;;3.60;3.30;;;;;;;-6.37;96.57;100634.81;4892924;29;20135;-64
2022/12/15 01:21:31;;;;;;;3.80;3.50;;;;;;;-6.38;96.70;100637.63;4893033;29;20092;-64
2022/12/15 01:23:56;;;;;;;3.85;3.55;;;;;;;-6.38;96.92;100637.63;4890068;29;20555;-65
2022/12/15 01:26:21;;;;;;;3.67;3.38;;;;;;;-6.37;96.92;100645.50;4892358;29;20037;-64
2022/12/15 01:28:47;;;;;;;3.95;3.65;;;;;;;-6.34;97.58;100647.91;4896115;29;20033;-65
2022/12/15 01:31:12;;;;;;;4.00;3.70;;;;;;;-6.29;97.62;100663.56;4895188;29;20052;-64
2022/12/15 01:33:38;;;;;;;4.07;3.78;;;;;;;-6.25;97.54;100665.00;4894869;29;20115;-65
2022/12/15 01:36:04;;;;;;;4.00;3.70;;;;;;;-6.25;97.30;100665.00;4895628;29;20035;-65
2022/12/15 01:38:29;;;;;;;3.80;3.50;;;;;;;-6.24;97.11;100665.84;4894389;29;20472;-63
2022/12/15 01:41:04;;;;;;;3.88;3.58;;;;;;;-6.24;96.97;100668.53;4894205;29;20037;-64
2022/12/15 01:43:32;;;;;;;3.70;3.40;;;;;;;-6.25;97.12;100670.34;4894457;29;20091;-65
2022/12/15 01:46:00;;;;;;;;;;;;;;;-6.21;96.66;100666.44;4895263;29;20719;-62
2022/12/15 01:48:25;;;;;;;;;;;;;;;-6.20;96.24;100665.47;4896222;29;20482;-65
2022/12/15 01:51:00;;;;;;;3.63;3.33;;;;;;;-6.27;96.27;100667.81;4895069;29;19920;-64
2022/12/15 01:53:26;;;;;;;3.70;3.40;;;;;;;-6.29;96.51;100669.75;4893350;29;20305;-64
2022/12/15 01:55:52;;;;;;;3.75;3.45;;;;;;;-6.28;97.08;100681.31;4895360;29;20444;-64
2022/12/15 01:58:19;;;;;;;4.00;3.70;;;;;;;-6.29;97.23;100680.44;4896223;29;20056;-64
2022/12/15 02:00:44;;;;;;;3.85;3.50;;;;;;;-6.32;97.02;100663.81;4895712;29;20108;-63
2022/12/15 02:03:11;;;;;;;3.70;3.40;;;;;;;-6.34;97.14;100673.78;4893137;29;20111;-65
2022/12/15 02:05:37;;;;;;;3.75;3.45;;;;;;;-6.37;97.17;100676.72;4894352;29;20391;-62
2022/12/15 02:08:03;;;;;;;3.83;3.53;;;;;;;-6.37;96.97;100682.06;4894405;29;20068;-65
2022/12/15 02:10:41;;;;;;;4.00;3.70;;;;;;;-6.39;97.23;100678.66;4891015;29;20080;-63
2022/12/15 02:13:34;;;;;;;3.95;3.65;;;;;;;-6.37;97.36;100679.38;4892491;29;20158;-65
2022/12/15 02:16:45;;;;;;;3.70;3.40;;;;;;;-6.33;97.53;100695.03;4890283;29;20444;-65
2022/12/15 02:19:29;;;;;;;3.80;3.50;;;;;;;-6.33;97.37;100697.72;4864374;29;20052;-64
2022/12/15 02:22:22;;;;;;;4.25;3.88;;;;;;;-6.35;97.60;100696.97;4892560;29;20075;-64
2022/12/15 02:25:37;;;;;;;4.00;3.70;;;;;;;-6.35;97.42;100702.31;4885057;29;20435;-63
2022/12/15 02:28:10;;;;;;;3.78;3.47;;;;;;;-6.40;96.98;100692.97;4892098;29;20594;-64
2022/12/15 02:31:48;;;;;;;3.80;3.50;;;;;;;-6.41;97.21;100702.81;4892308;29;20029;-63
2022/12/15 02:33:36;;;;;;;3.67;3.38;;;;;;;-6.42;97.32;100708.31;4891968;29;20055;-64
2022/12/15 02:36:14;;;;;;;3.90;3.60;;;;;;;-6.42;97.43;100703.81;4893484;29;20452;-65
2022/12/15 02:38:40;;;;;;;3.92;3.60;;;;;;;-6.42;97.31;100709.16;4891928;29;20079;-64
2022/12/15 02:41:41;;;;;;;4.00;3.70;;;;;;;-6.41;97.40;100710.84;4892608;29;20511;-60
2022/12/15 02:44:11;;;;;;;4.10;3.70;;;;;;;-6.40;97.60;100709.00;4892124;29;20035;-64
2022/12/15 02:46:44;;;;;;;4.10;3.80;;;;;;;-6.41;97.46;100705.50;4893893;29;20119;-64
2022/12/15 02:49:20;;;;;;;3.95;3.65;;;;;;;-6.43;97.49;100704.78;4892694;29;20068;-65
2022/12/15 02:52:01;;;;;;;4.10;3.80;;;;;;;-6.46;97.18;100702.34;4893181;29;20035;-65
2022/12/15 02:55:08;;;;;;;4.00;3.70;;;;;;;-6.47;97.23;100702.50;4880918;29;20036;-65
2022/12/15 02:57:52;;;;;;;3.75;3.47;;;;;;;-6.53;97.50;100709.19;4887407;29;20032;-65
2022/12/15 03:00:17;;;;;;;3.80;3.50;;;;;;;-6.56;97.34;100709.41;4891272;29;20039;-64
2022/12/15 03:02:54;;;;;;;3.85;3.55;;;;;;;-6.58;97.37;100708.69;4892868;29;20044;-64
2022/12/15 03:05:20;;;;;;;4.07;3.78;;;;;;;-6.57;97.50;100718.41;4892288;29;20040;-65
2022/12/15 03:07:52;;;;;;;4.00;3.70;;;;;;;-6.58;97.80;100719.38;4891957;29;20048;-65
2022/12/15 03:10:18;;;;;;;4.07;3.78;;;;;;;-6.63;97.36;100716.25;4890765;29;20045;-64
2022/12/15 03:12:44;;;;;;;3.80;3.50;;;;;;;-6.68;97.62;100715.75;4892646;29;20037;-65
2022/12/15 03:15:10;;;;;;;4.15;3.85;;;;;;;-6.73;97.54;100713.47;4893917;29;20025;-64
2022/12/15 03:17:37;;;;;;;3.90;3.60;;;;;;;-6.77;97.63;100714.66;4893289;29;20052;-62
2022/12/15 03:20:03;;;;;;;4.00;3.70;;;;;;;-6.80;97.60;100715.75;4891153;29;20124;-64
2022/12/15 03:22:28;;;;;;;3.90;3.60;;;;;;;-6.78;97.94;100721.00;4891855;29;20127;-65
2022/12/15 03:24:53;;;;;;;3.92;3.60;;;;;;;-6.77;98.25;100719.16;4892278;29;20097;-64
2022/12/15 03:27:18;;;;;;;4.20;3.90;;;;;;;-6.76;98.02;100718.19;4890910;29;20053;-64
2022/12/15 03:29:44;;;;;;;4.13;3.83;;;;;;;-6.74;98.45;100718.91;4892723;29;20119;-65
2022/12/15 03:32:09;;;;;;;4.10;3.80;;;;;;;-6.72;98.31;100730.31;4893971;29;20044;-64
2022/12/15 03:34:34;;;;;;;4.20;3.90;;;;;;;-6.68;98.71;100732.63;4892348;29;20145;-64
2022/12/15 03:37:00;;;;;;;4.03;3.72;;;;;;;-6.65;98.90;100734.19;4893066;29;20091;-63
2022/12/15 03:39:25;;;;;;;4.05;3.63;;;;;;;-6.65;98.85;100734.19;4890048;29;20040;-64
2022/12/15 03:41:50;;;;;;;3.83;3.53;;;;;;;-6.67;98.42;100734.31;4891580;29;20024;-64
2022/12/15 03:44:15;;;;;;;3.85;3.55;;;;;;;-6.71;98.34;100734.69;4891872;29;20032;-64
2022/12/15 03:46:41;;;;;;;3.88;3.58;;;;;;;-6.73;98.15;100731.31;4892562;29;20032;-62
2022/12/15 03:49:06;;;;;;;3.88;3.58;;;;;;;-6.76;98.67;100734.22;4890660;29;20085;-65
2022/12/15 03:51:31;;;;;;;4.20;3.90;;;;;;;-6.76;98.38;100735.06;4893544;29;20052;-65
2022/12/15 03:53:57;;;;;;;4.28;3.88;;;;;;;-6.74;98.89;100745.59;4892004;29;20054;-65
2022/12/15 03:56:23;;;;;;;3.95;3.65;;;;;;;-6.73;98.43;100747.31;4892783;29;20036;-64
2022/12/15 03:58:48;;;;;;;4.20;3.90;;;;;;;-6.73;98.75;100741.97;4890589;29;20036;-64
2022/12/15 04:01:20;;;;;;;4.30;3.90;;;;;;;-6.70;98.79;100747.06;4893750;29;20046;-64
2022/12/15 04:03:45;;;;;;;3.80;3.50;;;;;;;-6.72;98.83;100739.19;4892315;29;20033;-62
2022/12/15 04:06:10;;;;;;;4.03;3.72;;;;;;;-6.70;99.07;100733.72;4893776;29;20146;-64
2022/12/15 04:08:36;;;;;;;4.22;3.92;;;;;;;-6.69;98.82;100732.72;4892046;29;20052;-61
2022/12/15 04:11:01;;;;;;;4.40;4.00;;;;;;;-6.67;99.04;100725.47;4892636;29;20116;-64
2022/12/15 04:13:26;;;;;;;4.45;4.00;;;;;;;-6.65;99.24;100736.84;4893562;29;20017;-64
2022/12/15 04:15:52;;;;;;;4.43;3.90;;;;;;;-6.65;99.04;100731.53;4892544;29;20115;-65
2022/12/15 04:18:17;;;;;;;4.25;3.95;;;;;;;-6.69;99.03;100728.28;4894213;29;20112;-64
2022/12/15 04:20:42;;;;;;;4.30;3.90;;;;;;;-6.68;99.33;100737.13;4891396;29;20035;-65
2022/12/15 04:23:08;;;;;;;4.00;3.70;;;;;;;-6.72;98.77;100733.00;4892392;29;20068;-65
2022/12/15 05:31:51;;;;;;;4.60;4.20;;;;;;;-6.89;99.62;100764.56;4895348;29;20564;-65
2022/12/15 05:34:21;;;;;;;4.60;4.20;;;;;;;-6.90;99.78;100765.50;4894715;29;20032;-62
2022/12/15 05:36:47;;;;;;;4.57;4.28;;;;;;;-6.88;100.00;100768.06;4895970;29;20047;-65
2022/12/15 05:39:13;;;;;;;4.57;4.18;;;;;;;-6.87;100.00;100775.97;4894428;29;20384;-65
2022/12/15 05:41:38;;;;;;;4.57;4.18;;;;;;;-6.86;100.00;100772.31;4893255;29;20041;-64
2022/12/15 05:44:04;;;;;;;4.47;4.18;;;;;;;-6.88;99.82;100776.09;4895699;29;20043;-65
2022/12/15 05:46:29;;;;;;;3.97;3.67;;;;;;;-6.91;99.88;100779.81;4894241;29;20024;-65
2022/12/15 05:48:54;;;;;;;4.10;3.80;;;;;;;-6.97;99.08;100774.13;4893907;29;20072;-62
2022/12/15 05:51:20;;;;;;;4.25;3.95;;;;;;;-7.05;99.15;100788.91;4895275;29;20036;-65
2022/12/15 05:53:45;;;;;;;4.45;4.05;;;;;;;-7.09;99.28;100786.63;4895338;29;20417;-65
2022/12/15 05:56:12;;;;;;;4.30;3.95;;;;;;;-7.09;100.00;100782.13;4893427;29;20044;-65
2022/12/15 05:58:39;;;;;;;4.70;4.30;;;;;;;-7.09;99.57;100783.94;4895210;29;20396;-65
2022/12/15 06:01:11;;;;;;;4.22;3.92;;;;;;;-7.12;99.70;100787.69;4896099;29;20104;-65
2022/12/15 06:03:37;;;;;;;4.40;4.07;;;;;;;-7.10;100.00;100790.22;4894501;29;20478;-65
2022/12/15 06:06:03;;;;;;;4.72;4.32;;;;;;;-7.12;100.00;100790.38;4894060;29;20049;-64
2022/12/15 06:08:30;;;;;;;4.40;4.10;;;;;;;-7.15;100.00;100792.41;4894934;29;20083;-65
2022/12/15 06:10:56;;;;;;;4.97;4.57;;;;;;;-7.16;100.00;100796.91;4890858;29;20044;-65
2022/12/15 06:13:22;;;;;;;4.40;4.10;;;;;;;-7.17;99.92;100810.38;4893347;29;20037;-64
2022/12/15 06:16:02;;;;;;;4.30;4.00;;;;;;;-7.21;99.83;100803.56;4892910;29;20502;-65
2022/12/15 06:18:31;;;;;;;4.47;4.07;;;;;;;-7.25;100.00;100802.94;4893309;29;20068;-64
2022/12/15 06:20:59;;;;;;;4.82;4.43;;;;;;;-7.26;100.00;100801.25;4892766;29;20028;-65
2022/12/15 06:23:25;;;;;;;4.82;4.43;;;;;;;-7.23;100.00;100805.50;4893803;29;20025;-65
2022/12/15 06:25:50;;;;;;;4.60;4.10;;;;;;;-7.27;99.78;100810.22;4892845;29;20040;-64
2022/12/15 06:28:15;;;;;;;4.10;3.80;;;;;;;-7.31;99.98;100806.94;4894239;29;20043;-65
2022/12/15 06:30:41;;;;;;;4.10;3.80;;;;;;;-7.33;99.97;100810.69;4892733;29;20056;-64
2022/12/15 06:33:06;;;;;;;4.18;3.88;;;;;;;-7.37;99.83;100803.88;4895107;29;20024;-62
2022/12/15 06:35:35;;;;;;;4.18;3.88;;;;;;;-7.37;99.80;100801.22;4893371;29;20055;-64
2022/12/15 06:38:00;;;;;;;4.55;4.15;;;;;;;-7.38;99.81;100799.53;4893600;29;20115;-64
2022/12/15 06:40:26;;;;;;;4.22;3.92;;;;;;;-7.40;99.81;100796.97;4893190;29;20421;-62
2022/12/15 06:42:51;;;;;;;4.20;3.90;;;;;;;-7.41;99.71;100805.09;4894064;29;20055;-64
2022/12/15 06:45:16;;;;;;;4.65;4.25;;;;;;;-7.45;99.96;100809.81;4893129;29;20032;-64
2022/12/15 06:47:41;;;;;;;4.53;4.13;;;;;;;-7.43;99.88;100809.69;4894083;29;20389;-65
2022/12/15 06:50:07;;;;;;;4.82;4.43;;;;;;;-7.41;100.00;100813.94;4893068;29;20035;-64
2022/12/15 06:52:32;;;;;;;4.75;4.35;;;;;;;-7.40;100.00;100814.78;4892983;29;20043;-64
2022/12/15 06:54:58;;;;;;;4.53;4.13;;;;;;;-7.41;100.00;100813.09;4891745;29;20040;-65
2022/12/15 06:57:23;;;;;;;4.35;4.05;;;;;;;-7.41;100.00;100810.41;4891969;29;20084;-64
2022/12/15 06:59:48;;;;;;;4.70;4.30;;;;;;;-7.44;100.00;100811.50;4892606;29;20040;-64
2022/12/15 07:02:15;;;;;;;4.70;4.30;;;;;;;-7.46;100.00;100804.56;4893069;29;20029;-62
2022/12/15 07:04:40;;;;;;;4.65;4.30;;;;;;;-7.49;100.00;100810.16;4891364;29;20064;-65
2022/12/15 07:07:08;;;;;;;4.78;4.38;;;;;;;-7.49;100.00;100807.50;4894493;29;20068;-62
2022/12/15 07:09:33;;;;;;;5.00;4.60;;;;;;;-7.51;100.00;100815.59;4894638;29;20036;-62
2022/12/15 07:11:59;;;;;;;4.53;4.22;;;;;;;-7.52;100.00;100831.72;4896457;29;20158;-64
2022/12/15 07:14:25;;;;;;;5.55;5.05;;;;;;;-7.48;100.00;100822.53;4893139;29;20035;-65
2022/12/15 07:16:50;;;;;;;5.10;4.70;;;;;;;-7.45;100.00;100825.81;4892714;29;20425;-63
2022/12/15 07:19:16;;;;;;;5.05;4.65;;;;;;;-7.42;100.00;100822.91;4892455;29;20025;-65
2022/12/15 07:21:41;;;;;;;5.10;4.70;;;;;;;-7.43;100.00;100829.22;4890980;29;20114;-64
2022/12/15 07:24:09;;;;;;;5.00;4.60;;;;;;;-7.41;100.00;100829.94;4892091;29;20032;-64
2022/12/15 07:26:34;;;;;;;5.65;5.25;;;;;;;-7.38;100.00;100832.38;4890595;29;20035;-65
2022/12/15 07:28:59;;;;;;;5.50;5.00;;;;;;;-7.33;100.00;100843.56;4892677;29;20024;-62
2022/12/15 07:31:25;;;;;;;5.22;4.82;;;;;;;-7.28;100.00;100829.88;4894653;29;20028;-64
2022/12/15 07:33:51;;;;;;;5.22;4.72;;;;;;;-7.26;100.00;100832.41;4893566;29;20024;-65
2022/12/15 07:36:17;;;;;;;5.00;4.60;;;;;;;-7.21;100.00;100835.59;4894421;29;20060;-64
2022/12/15 07:38:44;;;;;;;5.43;4.93;;;;;;;-7.18;100.00;100830.88;4892936;29;20384;-65
2022/12/15 07:41:10;;;;;;;4.67;4.27;;;;;;;-7.15;100.00;100827.09;4893393;29;20062;-64
2022/12/15 07:43:36;;;;;;;4.80;4.40;;;;;;;-7.15;100.00;100840.44;4894601;29;20433;-65
2022/12/15 07:46:02;;;;;;;4.88;4.47;;;;;;;-7.22;100.00;100829.41;4893361;29;20037;-65
2022/12/15 07:48:28;;;;;;;4.40;4.10;;;;;;;-7.23;100.00;100838.38;4893293;29;20423;-65
2022/12/15 07:50:56;;;;;;;4.53;4.13;;;;;;;-7.21;100.00;100841.75;4893321;29;20037;-64
2022/12/15 07:53:23;;;;;;;4.85;4.45;;;;;;;-7.19;100.00;100842.53;4892743;29;20024;-64
2022/12/15 07:55:57;;;;;;;4.68;4.30;;;;;;;-7.20;100.00;100848.78;4892839;29;20033;-65
2022/12/15 07:58:23;;;;;;;4.32;4.03;;;;;;;-7.16;100.00;100850.28;4892795;29;20460;-65
2022/12/15 08:00:48;;;;;;;4.93;4.50;;;;;;;-7.03;100.00;100847.53;4893039;29;20040;-65
2022/12/15 08:03:13;;;;;;;5.20;4.70;;;;;;;-6.89;100.00;100860.66;4893719;29;20036;-65
2022/12/15 08:05:38;;;;;;;4.93;4.47;;;;;;;-6.79;100.00;100866.16;4892638;29;20033;-63
2022/12/15 08:08:04;;;;;;;4.65;4.25;;;;;;;-6.74;100.00;100858.63;4891052;29;20091;-64
2022/12/15 08:10:29;;;;;;;4.68;4.28;;;;;;;-6.73;100.00;100856.81;4890814;29;20494;-65
2022/12/15 08:12:54;;;;;;;4.63;4.25;;;;;;;-6.73;100.00;100867.50;4884726;29;20069;-62
2022/12/15 08:15:20;;;;;;;4.43;4.03;;;;;;;-6.60;100.00;100863.72;4883562;29;20940;-62
2022/12/15 08:17:45;;;;;;;4.97;4.47;;;;;;;-6.25;100.00;100859.25;4885773;29;20036;-64
2022/12/15 08:20:10;;;;;;;4.70;4.40;;;;;;;-5.91;99.96;100852.06;4888313;29;20024;-65
2022/12/15 08:22:36;;;;;;;4.85;4.45;;;;;;;-5.79;98.50;100859.88;4893126;29;20024;-65
2022/12/15 08:25:02;;;;;;;4.68;4.30;;;;;;;-5.80;97.70;100860.00;4891325;29;20036;-64
2022/12/15 08:27:27;;;;;;;4.63;4.28;;;;;;;-5.63;97.56;100869.31;4891664;29;20056;-64
2022/12/15 08:29:53;;;;;;;4.47;4.18;;;;;;;-5.32;97.03;100862.28;4890014;29;20040;-65
2022/12/15 08:32:19;;;;;;;4.63;4.22;;;;;;;-5.11;96.51;100849.78;4893108;29;20527;-64
2022/12/15 08:34:46;;;;;;;4.75;4.35;;;;;;;-4.89;96.24;100847.94;4892460;29;20119;-65
2022/12/15 08:37:11;;;;;;;4.72;4.32;;;;;;;-4.70;96.14;100854.28;4892318;29;20040;-64
2022/12/15 08:39:36;;;;;;;4.70;4.30;;;;;;;-4.57;95.73;100855.88;4893545;29;20029;-65
2022/12/15 08:42:02;;;;;;;4.47;4.18;;;;;;;-4.24;95.74;100860.16;4890415;29;20448;-64
2022/12/15 08:44:27;;;;;;;4.50;4.20;;;;;;;-3.38;94.94;100855.97;4887931;29;20032;-62
2022/12/15 08:46:52;;;;;;;4.15;3.85;;;;;;;-2.51;88.98;100853.19;4892621;29;20028;-65
2022/12/15 08:49:17;;;;;;;4.05;3.75;;;;;;;-2.55;86.36;100848.25;4892472;29;20400;-64
2022/12/15 08:51:43;;;;;;;4.30;4.00;;;;;;;-2.87;86.54;100866.41;4890636;29;20028;-64
2022/12/15 08:54:08;;;;;;;4.50;4.13;;;;;;;-3.05;87.00;100864.59;4891615;29;20115;-65
2022/12/15 08:56:34;;;;;;;4.53;4.13;;;;;;;-3.15;88.06;100869.97;4890063;29;20025;-64
2022/12/15 08:59:01;;;;;;;4.80;4.40;;;;;;;-3.20;88.66;100865.00;4892643;29;20032;-64
2022/12/15 09:01:28;;;;;;;4.70;4.30;;;;;;;-3.10;89.08;100866.84;4892184;29;20067;-64
2022/12/15 09:03:54;;;;;;;4.88;4.47;;;;;;;-2.95;89.11;100876.19;4891564;29;20025;-64
2022/12/15 09:06:23;;;;;;;5.10;4.60;;;;;;;-2.68;88.62;100876.28;4892088;29;20076;-65
2022/12/15 09:08:48;;;;;;;4.70;4.30;;;;;;;-2.20;87.62;100878.00;4878626;29;20088;-62
2022/12/15 09:11:13;;;;;;;4.90;4.50;;;;;;;-2.06;86.36;100876.66;4897611;29;20128;-65
2022/12/15 09:13:39;;;;;;;4.70;4.30;;;;;;;-1.97;85.48;100883.00;4890373;29;20032;-65
2022/12/15 09:16:07;;;;;;;4.93;4.43;;;;;;;-1.94;85.58;100882.69;4888124;29;20028;-64
2022/12/15 09:18:33;;;;;;;4.57;4.28;;;;;;;-1.46;84.28;100877.03;4888587;29;20040;-64
2022/12/15 09:21:06;;;;;;;4.47;4.10;;;;;;;-1.28;81.74;100879.75;4888368;29;20480;-65
2022/12/15 09:23:32;;;;;;;4.32;4.03;;;;;;;-1.49;82.15;100884.56;4890587;29;20119;-64
2022/12/15 09:26:07;;;;;;;4.70;4.30;;;;;;;-1.73;83.39;100901.28;4889680;29;20511;-65
2022/12/15 09:28:32;;;;;;;4.70;4.15;;;;;;;-1.85;84.16;100901.50;4890673;29;20037;-62
2022/12/15 09:31:03;;;;;;;4.43;4.05;;;;;;;-2.01;84.77;100895.91;4889027;29;20048;-64
2022/12/15 09:33:28;;;;;;;4.32;3.92;;;;;;;-2.21;85.15;100900.50;4888873;29;20067;-64
2022/12/15 09:35:54;;;;;;;4.25;3.95;;;;;;;-2.14;85.97;100904.28;4889830;29;20073;-64
2022/12/15 09:38:19;;;;;;;4.50;4.10;;;;;;;-2.00;86.13;100911.06;4890827;29;20477;-64
2022/12/15 09:40:44;;;;;;;4.20;3.90;;;;;;;-1.93;84.92;100914.00;4889723;29;20036;-64
2022/12/15 09:43:15;;;;;;;4.30;3.95;;;;;;;-2.06;86.02;100917.03;4891046;29;20472;-62
2022/12/15 09:45:46;;;;;;;4.03;3.72;;;;;;;-2.04;86.59;100931.16;4889510;29;20036;-63
2022/12/15 09:48:16;;;;;;;4.53;4.13;;;;;;;-1.93;85.79;100932.81;4888131;29;20543;-65
2022/12/15 09:50:44;;;;;;;4.70;4.30;;;;;;;-1.77;86.02;100930.38;4892402;29;20609;-64
2022/12/15 09:53:12;;;;;;;4.32;3.92;;;;;;;-1.53;85.87;100928.97;4893107;29;20060;-65
2022/12/15 09:55:38;;;;;;;4.20;3.90;;;;;;;-1.10;83.71;100925.56;4892642;29;20033;-64
2022/12/15 09:58:42;;;;;;;4.22;3.83;;;;;;;-0.53;81.61;100918.81;4893075;29;20033;-64
2022/12/15 10:01:26;;;;;;;4.50;4.10;;;;;;;0.93;77.87;100907.00;4822139;29;20038;-64
2022/12/15 10:04:10;;;;;;;4.03;3.63;;;;;;;2.26;73.22;100910.25;4833382;29;20168;-61
2022/12/15 10:06:44;;;;;;;4.00;3.70;;;;;;;3.57;68.38;100904.84;4877541;29;20072;-64
2022/12/15 10:09:18;;;;;;;3.92;3.63;;;;;;;4.82;64.40;100916.66;4889915;29;20033;-65
2022/12/15 10:11:46;;;;;;;3.60;3.30;;;;;;;6.01;60.08;100919.69;4856786;29;1040871;-65
2022/12/15 10:14:33;;;;;;;3.97;3.60;;;;;;;7.27;56.92;100910.16;4893187;29;20131;-64
2022/12/15 10:17:20;;;;;;;4.10;3.20;;;;;;;8.73;55.66;100910.03;4877748;29;20059;-64
2022/12/15 10:19:58;;;;;;;3.58;3.28;;;;;;;9.18;50.15;100904.53;4890291;29;20292;-64
2022/12/15 10:22:29;;;;;;;3.15;2.90;;;;;;;9.74;48.06;100906.44;4892223;29;20032;-63
2022/12/15 10:24:54;;;;;;;2.90;2.70;;;;;;;10.63;45.71;100902.38;4890778;29;20028;-64
2022/12/15 10:27:34;;;;;;;3.28;2.97;;;;;;;10.69;46.37;100888.78;4893783;29;20021;-63
2022/12/15 10:30:03;;;;;;;3.15;2.95;;;;;;;10.56;43.81;100896.13;4879375;29;20093;-65
2022/12/15 10:32:31;;;;;;;3.00;2.80;;;;;;;10.52;43.49;100902.31;4892738;29;20036;-65
2022/12/15 10:34:56;;;;;;;2.97;2.78;;;;;;;10.55;43.27;100899.13;4893542;29;20025;-62
2022/12/15 10:37:23;;;;;;;3.10;2.85;;;;;;;10.61;43.03;100898.19;4893724;29;20096;-64
2022/12/15 10:39:49;;;;;;;2.90;2.70;;;;;;;10.61;43.12;100895.44;4891732;29;20032;-64
2022/12/15 10:42:23;;;;;;;3.05;2.83;;;;;;;10.91;43.99;100900.97;4892098;29;20024;-64
2022/12/15 10:44:55;;;;;;;2.70;2.50;;;;;;;11.14;42.18;100897.47;4881783;29;20032;-65
2022/12/15 10:47:21;;;;;;;2.80;2.53;;;;;;;11.25;41.29;100904.09;4893363;29;20036;-65
2022/12/15 10:49:48;;;;;;;2.85;2.65;;;;;;;11.45;41.12;100904.63;4893244;29;20059;-64
2022/12/15 10:52:18;;;;;;;2.75;2.55;;;;;;;11.46;40.10;100906.31;4891332;29;20384;-65
2022/12/15 10:54:46;;;;;;;2.70;2.50;;;;;;;10.96;40.75;100911.28;4893780;29;20384;-63
2022/12/15 10:57:20;;;;;;;2.70;2.50;;;;;;;11.27;42.09;100896.47;4895115;29;20036;-64
2022/12/15 10:59:45;;;;;;;2.80;2.60;;;;;;;11.60;39.57;100907.78;4891340;29;20088;-64
2022/12/15 11:02:19;;;;;;;2.80;2.60;;;;;;;11.85;41.32;100904.03;4895688;29;20412;-64
2022/12/15 11:05:05;;;;;;;2.65;2.45;;;;;;;11.68;40.03;100909.34;4876304;29;20072;-65
2022/12/15 11:07:35;;;;;;;2.60;2.40;;;;;;;11.09;40.79;100900.91;4888921;29;20029;-65
2022/12/15 11:10:26;;;;;;;2.83;2.63;;;;;;;10.89;42.09;100911.34;4893381;29;20067;-63
2022/12/15 11:12:56;;;;;;;2.80;2.60;;;;;;;10.81;41.60;100904.28;4884253;29;20420;-64
2022/12/15 11:15:21;;;;;;;2.70;2.50;;;;;;;10.83;41.55;100904.88;4894102;29;20092;-63
2022/12/15 11:18:10;;;;;;;2.93;2.73;;;;;;;10.86;41.56;100896.19;4893548;29;20036;-64
2022/12/15 11:20:49;;;;;;;2.80;2.60;;;;;;;10.89;42.65;100897.59;4887762;29;20305;-65
2022/12/15 11:23:24;;;;;;;2.70;2.50;;;;;;;10.38;41.41;100896.94;4874850;29;20064;-65
2022/12/15 11:26:10;;;;;;;2.70;2.50;;;;;;;10.04;44.85;100889.28;4889933;29;20168;-64
2022/12/15 11:28:45;;;;;;;2.80;2.60;;;;;;;9.79;43.94;100898.38;4895517;29;20072;-64
2022/12/15 11:31:36;;;;;;;3.00;2.80;;;;;;;9.21;45.30;100898.59;4893137;29;20031;-64
2022/12/15 11:34:02;;;;;;;2.75;2.55;;;;;;;8.77;45.27;100905.78;4895125;29;20370;-65
2022/12/15 11:36:55;;;;;;;2.92;2.70;;;;;;;8.65;47.23;100904.78;4890499;29;20033;-64
2022/12/15 11:39:35;;;;;;;3.00;2.80;;;;;;;7.75;47.32;100909.13;4892682;29;20039;-66
2022/12/15 11:42:35;;;;;;;2.83;2.63;;;;;;;7.01;49.96;100904.66;4890697;29;20036;-64
2022/12/15 11:45:19;;;;;;;2.80;2.60;;;;;;;6.67;50.71;100911.03;4894911;29;20045;-62
2022/12/15 11:47:52;;;;;;;2.80;2.60;;;;;;;6.11;51.51;100906.53;4907771;29;20044;-64
2022/12/15 11:50:30;;;;;;;3.20;3.00;;;;;;;5.76;53.97;100915.69;4893772;29;20037;-65
2022/12/15 11:53:16;;;;;;;3.17;2.97;;;;;;;5.24;55.29;100906.00;4892067;29;20443;-65
2022/12/15 11:56:02;;;;;;;4.03;3.00;;;;;;;5.66;54.93;100911.41;4893366;29;20088;-64
2022/12/15 11:58:33;;;;;;;3.03;2.70;;;;;;;6.59;51.89;100909.34;4894219;29;20067;-65
2022/12/15 12:01:35;;;;;;;3.10;2.90;;;;;;;6.86;51.86;100898.50;4894474;29;20408;-65
2022/12/15 12:04:27;;;;;;;3.15;2.95;;;;;;;6.98;52.44;100891.38;4893146;29;20036;-65
2022/12/15 12:07:19;;;;;;;2.90;2.70;;;;;;;7.95;50.58;100881.78;4892167;29;20842;-64
2022/12/15 12:10:09;;;;;;;3.10;2.80;;;;;;;8.96;47.57;100875.75;4885215;29;20400;-65
2022/12/15 12:13:03;;;;;;;2.88;2.67;;;;;;;10.17;46.72;100882.81;4885095;29;20040;-63
2022/12/15 12:15:36;;;;;;;2.80;2.60;;;;;;;10.77;43.63;100881.06;4888944;29;20029;-63
2022/12/15 12:18:14;;;;;;;2.70;2.50;;;;;;;11.05;42.59;100872.25;4893430;29;20036;-63
2022/12/15 12:20:45;;;;;;;2.45;2.30;;;;;;;11.20;41.69;100873.72;4890041;29;20024;-62
2022/12/15 12:23:33;;;;;;;2.60;2.40;;;;;;;11.40;42.91;100864.13;4891788;29;20040;-63
2022/12/15 12:26:10;;;;;;;2.60;2.40;;;;;;;11.41;41.12;100863.03;4892989;29;20086;-63
2022/12/15 12:28:51;;;;;;;2.70;2.50;;;;;;;11.35;41.30;100866.72;4893158;29;20028;-63
2022/12/15 12:31:40;;;;;;;2.70;2.50;;;;;;;11.35;42.66;100866.72;4889718;29;20040;-64
2022/12/15 12:34:14;;;;;;;2.80;2.58;;;;;;;11.15;41.47;100857.91;4881084;29;20092;-65
2022/12/15 12:36:42;;;;;;;2.75;2.53;;;;;;;10.48;41.22;100860.72;4891275;29;20040;-65
2022/12/15 12:39:13;;;;;;;;;;;;;;;10.60;43.91;100858.06;4892851;29;20020;-64
2022/12/15 12:41:43;;;;;;;2.78;2.53;;;;;;;10.14;42.80;100860.25;4891620;29;20009;-66
2022/12/15 12:44:19;;;;;;;2.70;2.50;;;;;;;10.06;42.93;100868.78;4890282;29;20033;-64
2022/12/15 12:46:50;;;;;;;2.80;2.60;;;;;;;9.63;43.69;100868.78;4906448;29;20041;-65
2022/12/15 12:49:16;;;;;;;2.85;2.65;;;;;;;9.61;43.81;100868.13;4893258;29;20036;-65
2022/12/15 12:51:50;;;;;;;2.92;2.72;;;;;;;9.58;44.48;100866.69;4892542;29;20068;-65
2022/12/15 12:54:34;;;;;;;2.90;2.70;;;;;;;9.16;45.83;100859.22;4889943;29;20116;-66
2022/12/15 12:57:01;;;;;;;2.80;2.60;;;;;;;7.56;48.00;100860.81;4892212;29;20092;-65
2022/12/15 12:59:26;;;;;;;2.95;2.75;;;;;;;6.09;52.33;100865.00;4894258;29;20381;-64
2022/12/15 13:01:54;;;;;;;3.10;2.90;;;;;;;4.94;56.09;100865.28;4892815;29;20033;-64
2022/12/15 13:04:29;;;;;;;3.00;2.72;;;;;;;4.07;59.70;100860.69;4890378;29;20035;-64
2022/12/15 13:06:54;;;;;;;3.38;3.08;;;;;;;3.44;62.75;100862.00;4891229;29;20040;-65
2022/12/15 13:09:22;;;;;;;3.07;2.87;;;;;;;3.03;64.73;100859.66;4893877;29;20024;-65
2022/12/15 13:11:47;;;;;;;3.20;3.00;;;;;;;2.86;65.53;100844.53;4888255;29;21899;-65
2022/12/15 13:14:16;;;;;;;3.07;2.87;;;;;;;2.58;66.90;100853.16;4890349;29;20044;-63
2022/12/15 13:16:44;;;;;;;3.22;3.03;;;;;;;2.38;67.74;100840.25;4892427;29;20048;-65
2022/12/15 13:19:09;;;;;;;3.50;3.30;;;;;;;2.31;69.07;100837.41;4893089;29;20028;-65
2022/12/15 13:21:41;;;;;;;3.35;3.10;;;;;;;2.26;69.52;100834.38;4891932;29;20432;-65
2022/12/15 13:24:30;;;;;;;3.50;3.20;;;;;;;2.29;69.53;100831.31;4894433;29;20436;-65
2022/12/15 13:27:08;;;;;;;3.30;3.10;;;;;;;2.24;69.70;100829.16;4891056;29;20432;-65
2022/12/15 13:29:35;;;;;;;3.50;3.20;;;;;;;2.28;70.20;100829.63;4891985;29;20035;-65
2022/12/15 13:32:01;;;;;;;3.27;3.07;;;;;;;2.42;71.01;100826.16;4896138;29;20607;-65
2022/12/15 13:34:34;;;;;;;3.30;3.10;;;;;;;2.46;69.83;100829.38;4896606;29;20035;-65
2022/12/15 13:37:00;;;;;;;3.20;2.88;;;;;;;2.32;70.36;100828.25;4891116;29;20472;-66
2022/12/15 13:39:28;;;;;;;3.70;3.40;;;;;;;2.23;70.47;100821.16;4889469;29;20151;-65
2022/12/15 13:41:53;;;;;;;;;;;;;;;2.35;70.01;100819.78;4891512;29;20025;-65
2022/12/15 13:44:31;;;;;;;3.20;3.00;;;;;;;2.20;71.77;100811.53;4895224;29;19926;-66
2022/12/15 13:47:08;;;;;;;3.45;3.25;;;;;;;2.10;72.33;100813.63;4887801;29;20039;-65
2022/12/15 13:49:39;;;;;;;3.70;3.40;;;;;;;1.98;72.49;100820.47;4896370;29;20502;-65
2022/12/15 13:52:27;;;;;;;3.28;3.08;;;;;;;2.00;73.13;100819.25;4896063;29;20068;-64
2022/12/15 13:54:59;;;;;;;3.10;2.90;;;;;;;1.96;73.81;100815.19;4893725;29;20365;-65
2022/12/15 13:57:29;;;;;;;3.70;3.40;;;;;;;1.87;74.43;100818.13;4895350;29;20039;-66
2022/12/15 14:00:04;;;;;;;3.45;3.15;;;;;;;1.84;74.57;100821.19;4895206;29;20116;-65